sensor_id;sensor_type;location;lat;lon;timestamp;P1;durP1;ratioP1;P2;durP2;ratioP2
24373;SDS011;12498;50.880;12.096;2023-05-20T00:00:07;17.77;;;12.32;;
24373;SDS011;12498;50.880;12.096;2023-05-20T00:02:34;18.67;;;12.27;;
24373;SDS011;12498;50.880;12.096;2023-05-20T00:05:00;19.67;;;13.68;;
24373;SDS011;12498;50.880;12.096;2023-05-20T00:07:25;17.85;;;12.27;;
24373;SDS011;12498;50.880;12.096;2023-05-20T00:09:51;20.02;;;13.35;;
24373;SDS011;12498;50.880;12.096;2023-05-20T00:12:17;20.75;;;12.90;;
24373;SDS011;12498;50.880;12.096;2023-05-20T00:14:42;21.70;;;13.90;;
24373;SDS011;12498;50.880;12.096;2023-05-20T00:17:08;19.17;;;13.38;;
24373;SDS011;12498;50.880;12.096;2023-05-20T00:19:34;21.70;;;14.02;;
24373;SDS011;12498;50.880;12.096;2023-05-20T00:21:59;20.00;;;12.93;;
24373;SDS011;12498;50.880;12.096;2023-05-20T00:24:25;20.92;;;13.75;;
24373;SDS011;12498;50.880;12.096;2023-05-20T00:26:51;20.95;;;13.43;;
24373;SDS011;12498;50.880;12.096;2023-05-20T00:29:17;23.88;;;13.70;;
24373;SDS011;12498;50.880;12.096;2023-05-20T00:31:42;20.40;;;13.65;;
24373;SDS011;12498;50.880;12.096;2023-05-20T00:34:08;22.35;;;14.40;;
24373;SDS011;12498;50.880;12.096;2023-05-20T00:36:34;21.40;;;14.05;;
24373;SDS011;12498;50.880;12.096;2023-05-20T00:39:00;20.80;;;14.23;;
24373;SDS011;12498;50.880;12.096;2023-05-20T00:41:26;20.48;;;14.60;;
24373;SDS011;12498;50.880;12.096;2023-05-20T00:43:52;22.92;;;14.38;;
24373;SDS011;12498;50.880;12.096;2023-05-20T00:46:18;22.45;;;15.18;;
24373;SDS011;12498;50.880;12.096;2023-05-20T00:48:44;21.40;;;14.27;;
24373;SDS011;12498;50.880;12.096;2023-05-20T00:51:10;25.48;;;15.15;;
24373;SDS011;12498;50.880;12.096;2023-05-20T00:53:38;22.58;;;15.20;;
24373;SDS011;12498;50.880;12.096;2023-05-20T00:56:04;24.58;;;15.98;;
24373;SDS011;12498;50.880;12.096;2023-05-20T00:58:30;24.52;;;16.25;;
24373;SDS011;12498;50.880;12.096;2023-05-20T01:00:56;23.65;;;15.98;;
24373;SDS011;12498;50.880;12.096;2023-05-20T01:03:22;25.75;;;16.73;;
24373;SDS011;12498;50.880;12.096;2023-05-20T01:05:47;23.92;;;15.63;;
24373;SDS011;12498;50.880;12.096;2023-05-20T01:08:13;26.17;;;16.05;;
24373;SDS011;12498;50.880;12.096;2023-05-20T01:10:40;26.05;;;16.65;;
24373;SDS011;12498;50.880;12.096;2023-05-20T01:13:08;24.67;;;16.97;;
24373;SDS011;12498;50.880;12.096;2023-05-20T01:15:38;25.83;;;16.52;;
24373;SDS011;12498;50.880;12.096;2023-05-20T01:18:05;25.13;;;16.83;;
24373;SDS011;12498;50.880;12.096;2023-05-20T01:20:34;25.90;;;17.67;;
24373;SDS011;12498;50.880;12.096;2023-05-20T01:23:01;26.67;;;17.63;;
24373;SDS011;12498;50.880;12.096;2023-05-20T01:25:27;27.98;;;18.52;;
24373;SDS011;12498;50.880;12.096;2023-05-20T01:27:54;27.90;;;18.83;;
24373;SDS011;12498;50.880;12.096;2023-05-20T01:30:29;28.42;;;19.20;;
24373;SDS011;12498;50.880;12.096;2023-05-20T01:33:04;33.05;;;19.20;;
24373;SDS011;12498;50.880;12.096;2023-05-20T01:35:33;32.40;;;18.70;;
24373;SDS011;12498;50.880;12.096;2023-05-20T01:37:59;28.73;;;18.60;;
24373;SDS011;12498;50.880;12.096;2023-05-20T01:40:30;26.55;;;17.90;;
24373;SDS011;12498;50.880;12.096;2023-05-20T01:42:58;25.65;;;18.48;;
24373;SDS011;12498;50.880;12.096;2023-05-20T01:45:25;26.73;;;19.05;;
24373;SDS011;12498;50.880;12.096;2023-05-20T01:47:50;30.73;;;18.05;;
24373;SDS011;12498;50.880;12.096;2023-05-20T01:50:16;38.30;;;19.27;;
24373;SDS011;12498;50.880;12.096;2023-05-20T01:52:42;30.90;;;20.60;;
24373;SDS011;12498;50.880;12.096;2023-05-20T01:55:08;27.63;;;18.48;;
24373;SDS011;12498;50.880;12.096;2023-05-20T01:57:33;32.30;;;20.23;;
24373;SDS011;12498;50.880;12.096;2023-05-20T01:59:59;33.40;;;19.70;;
24373;SDS011;12498;50.880;12.096;2023-05-20T02:02:25;27.50;;;18.75;;
24373;SDS011;12498;50.880;12.096;2023-05-20T02:04:54;28.40;;;19.80;;
24373;SDS011;12498;50.880;12.096;2023-05-20T02:07:19;30.67;;;20.58;;
24373;SDS011;12498;50.880;12.096;2023-05-20T02:09:45;27.92;;;19.42;;
24373;SDS011;12498;50.880;12.096;2023-05-20T02:12:11;28.50;;;19.23;;
24373;SDS011;12498;50.880;12.096;2023-05-20T02:14:46;33.13;;;19.48;;
24373;SDS011;12498;50.880;12.096;2023-05-20T02:17:12;30.70;;;20.02;;
24373;SDS011;12498;50.880;12.096;2023-05-20T02:19:40;27.25;;;20.27;;
24373;SDS011;12498;50.880;12.096;2023-05-20T02:22:06;30.35;;;20.25;;
24373;SDS011;12498;50.880;12.096;2023-05-20T02:24:32;32.83;;;20.45;;
24373;SDS011;12498;50.880;12.096;2023-05-20T02:26:58;27.95;;;19.92;;
24373;SDS011;12498;50.880;12.096;2023-05-20T02:29:24;30.42;;;20.48;;
24373;SDS011;12498;50.880;12.096;2023-05-20T02:31:50;29.33;;;19.70;;
24373;SDS011;12498;50.880;12.096;2023-05-20T02:34:19;31.52;;;20.95;;
24373;SDS011;12498;50.880;12.096;2023-05-20T02:39:10;30.50;;;20.48;;
24373;SDS011;12498;50.880;12.096;2023-05-20T02:41:36;33.20;;;22.17;;
24373;SDS011;12498;50.880;12.096;2023-05-20T02:44:02;30.25;;;20.67;;
24373;SDS011;12498;50.880;12.096;2023-05-20T02:46:27;29.63;;;20.73;;
24373;SDS011;12498;50.880;12.096;2023-05-20T02:48:53;32.05;;;21.08;;
24373;SDS011;12498;50.880;12.096;2023-05-20T02:51:19;31.83;;;20.67;;
24373;SDS011;12498;50.880;12.096;2023-05-20T02:53:45;35.50;;;21.85;;
24373;SDS011;12498;50.880;12.096;2023-05-20T02:56:11;38.25;;;25.05;;
24373;SDS011;12498;50.880;12.096;2023-05-20T02:58:37;38.90;;;26.50;;
24373;SDS011;12498;50.880;12.096;2023-05-20T03:01:03;34.67;;;22.90;;
24373;SDS011;12498;50.880;12.096;2023-05-20T03:03:29;28.15;;;20.02;;
24373;SDS011;12498;50.880;12.096;2023-05-20T03:05:55;28.92;;;21.30;;
24373;SDS011;12498;50.880;12.096;2023-05-20T03:08:21;30.13;;;21.30;;
24373;SDS011;12498;50.880;12.096;2023-05-20T03:10:47;35.00;;;22.55;;
24373;SDS011;12498;50.880;12.096;2023-05-20T03:13:13;30.42;;;21.67;;
24373;SDS011;12498;50.880;12.096;2023-05-20T03:15:42;35.88;;;22.08;;
24373;SDS011;12498;50.880;12.096;2023-05-20T03:18:09;32.38;;;22.45;;
24373;SDS011;12498;50.880;12.096;2023-05-20T03:20:36;33.35;;;21.88;;
24373;SDS011;12498;50.880;12.096;2023-05-20T03:23:02;32.45;;;22.17;;
24373;SDS011;12498;50.880;12.096;2023-05-20T03:25:28;29.48;;;21.85;;
24373;SDS011;12498;50.880;12.096;2023-05-20T03:27:54;31.30;;;22.23;;
24373;SDS011;12498;50.880;12.096;2023-05-20T03:30:22;30.60;;;22.48;;
24373;SDS011;12498;50.880;12.096;2023-05-20T03:32:48;31.42;;;22.30;;
24373;SDS011;12498;50.880;12.096;2023-05-20T03:35:14;30.83;;;22.80;;
24373;SDS011;12498;50.880;12.096;2023-05-20T03:37:39;34.22;;;22.48;;
24373;SDS011;12498;50.880;12.096;2023-05-20T03:40:05;34.78;;;22.17;;
24373;SDS011;12498;50.880;12.096;2023-05-20T03:42:34;24.67;;;17.17;;
24373;SDS011;12498;50.880;12.096;2023-05-20T03:45:00;32.53;;;22.63;;
24373;SDS011;12498;50.880;12.096;2023-05-20T03:47:26;31.90;;;23.52;;
24373;SDS011;12498;50.880;12.096;2023-05-20T03:49:52;35.28;;;23.60;;
24373;SDS011;12498;50.880;12.096;2023-05-20T03:52:18;33.70;;;22.60;;
24373;SDS011;12498;50.880;12.096;2023-05-20T03:54:44;36.05;;;24.13;;
24373;SDS011;12498;50.880;12.096;2023-05-20T03:57:10;37.72;;;25.08;;
24373;SDS011;12498;50.880;12.096;2023-05-20T03:59:36;36.28;;;24.45;;
24373;SDS011;12498;50.880;12.096;2023-05-20T04:02:02;36.83;;;24.83;;
24373;SDS011;12498;50.880;12.096;2023-05-20T04:04:28;35.13;;;24.23;;
24373;SDS011;12498;50.880;12.096;2023-05-20T04:06:54;35.22;;;24.67;;
24373;SDS011;12498;50.880;12.096;2023-05-20T04:09:21;33.28;;;24.50;;
24373;SDS011;12498;50.880;12.096;2023-05-20T04:11:47;36.17;;;26.17;;
24373;SDS011;12498;50.880;12.096;2023-05-20T04:14:13;39.05;;;25.95;;
24373;SDS011;12498;50.880;12.096;2023-05-20T04:16:39;36.58;;;25.88;;
24373;SDS011;12498;50.880;12.096;2023-05-20T04:19:05;34.75;;;25.08;;
24373;SDS011;12498;50.880;12.096;2023-05-20T04:21:31;39.83;;;27.40;;
24373;SDS011;12498;50.880;12.096;2023-05-20T04:23:57;43.70;;;27.95;;
24373;SDS011;12498;50.880;12.096;2023-05-20T04:26:23;42.63;;;30.27;;
24373;SDS011;12498;50.880;12.096;2023-05-20T04:28:49;42.55;;;28.98;;
24373;SDS011;12498;50.880;12.096;2023-05-20T04:31:15;41.95;;;28.17;;
24373;SDS011;12498;50.880;12.096;2023-05-20T04:33:42;42.15;;;29.23;;
24373;SDS011;12498;50.880;12.096;2023-05-20T04:36:09;41.70;;;29.55;;
24373;SDS011;12498;50.880;12.096;2023-05-20T04:38:36;51.05;;;32.15;;
24373;SDS011;12498;50.880;12.096;2023-05-20T04:41:02;44.53;;;28.75;;
24373;SDS011;12498;50.880;12.096;2023-05-20T04:43:29;46.17;;;29.17;;
24373;SDS011;12498;50.880;12.096;2023-05-20T04:45:55;43.53;;;28.38;;
24373;SDS011;12498;50.880;12.096;2023-05-20T04:48:25;45.55;;;27.60;;
24373;SDS011;12498;50.880;12.096;2023-05-20T04:50:51;40.92;;;27.75;;
24373;SDS011;12498;50.880;12.096;2023-05-20T04:53:18;41.35;;;28.42;;
24373;SDS011;12498;50.880;12.096;2023-05-20T04:55:45;40.72;;;29.35;;
24373;SDS011;12498;50.880;12.096;2023-05-20T04:58:12;43.22;;;29.05;;
24373;SDS011;12498;50.880;12.096;2023-05-20T05:00:42;41.20;;;28.02;;
24373;SDS011;12498;50.880;12.096;2023-05-20T05:03:08;46.17;;;29.27;;
24373;SDS011;12498;50.880;12.096;2023-05-20T05:05:34;51.03;;;33.75;;
24373;SDS011;12498;50.880;12.096;2023-05-20T05:08:02;51.28;;;34.25;;
24373;SDS011;12498;50.880;12.096;2023-05-20T05:10:28;50.83;;;32.45;;
24373;SDS011;12498;50.880;12.096;2023-05-20T05:12:54;48.45;;;33.28;;
24373;SDS011;12498;50.880;12.096;2023-05-20T05:15:20;57.80;;;35.28;;
24373;SDS011;12498;50.880;12.096;2023-05-20T05:17:46;51.63;;;33.90;;
24373;SDS011;12498;50.880;12.096;2023-05-20T05:20:12;51.25;;;32.55;;
24373;SDS011;12498;50.880;12.096;2023-05-20T05:22:38;48.83;;;31.23;;
24373;SDS011;12498;50.880;12.096;2023-05-20T05:25:05;50.33;;;31.98;;
24373;SDS011;12498;50.880;12.096;2023-05-20T05:27:32;47.50;;;30.75;;
24373;SDS011;12498;50.880;12.096;2023-05-20T05:29:58;50.05;;;30.25;;
24373;SDS011;12498;50.880;12.096;2023-05-20T05:32:24;47.17;;;30.95;;
24373;SDS011;12498;50.880;12.096;2023-05-20T05:34:50;47.50;;;30.63;;
24373;SDS011;12498;50.880;12.096;2023-05-20T05:37:16;42.30;;;28.27;;
24373;SDS011;12498;50.880;12.096;2023-05-20T05:39:42;43.97;;;29.02;;
24373;SDS011;12498;50.880;12.096;2023-05-20T05:42:08;42.00;;;29.13;;
24373;SDS011;12498;50.880;12.096;2023-05-20T05:44:34;46.88;;;30.83;;
24373;SDS011;12498;50.880;12.096;2023-05-20T05:47:00;44.03;;;29.50;;
24373;SDS011;12498;50.880;12.096;2023-05-20T05:49:26;48.22;;;30.67;;
24373;SDS011;12498;50.880;12.096;2023-05-20T05:51:52;39.92;;;28.10;;
24373;SDS011;12498;50.880;12.096;2023-05-20T05:54:18;38.83;;;27.52;;
24373;SDS011;12498;50.880;12.096;2023-05-20T05:56:45;40.67;;;27.75;;
24373;SDS011;12498;50.880;12.096;2023-05-20T05:59:11;37.78;;;26.67;;
24373;SDS011;12498;50.880;12.096;2023-05-20T06:01:37;43.28;;;28.23;;
24373;SDS011;12498;50.880;12.096;2023-05-20T06:04:03;45.00;;;31.55;;
24373;SDS011;12498;50.880;12.096;2023-05-20T06:06:29;58.42;;;34.50;;
24373;SDS011;12498;50.880;12.096;2023-05-20T06:08:56;57.83;;;34.85;;
24373;SDS011;12498;50.880;12.096;2023-05-20T06:11:22;42.65;;;28.42;;
24373;SDS011;12498;50.880;12.096;2023-05-20T06:13:48;37.72;;;26.95;;
24373;SDS011;12498;50.880;12.096;2023-05-20T06:16:15;55.70;;;33.95;;
24373;SDS011;12498;50.880;12.096;2023-05-20T06:18:41;47.47;;;30.42;;
24373;SDS011;12498;50.880;12.096;2023-05-20T06:21:07;39.50;;;25.63;;
24373;SDS011;12498;50.880;12.096;2023-05-20T06:23:33;43.05;;;27.95;;
24373;SDS011;12498;50.880;12.096;2023-05-20T06:25:59;37.45;;;25.67;;
24373;SDS011;12498;50.880;12.096;2023-05-20T06:28:26;46.50;;;32.65;;
24373;SDS011;12498;50.880;12.096;2023-05-20T06:30:55;58.33;;;33.90;;
24373;SDS011;12498;50.880;12.096;2023-05-20T06:35:50;39.15;;;25.85;;
24373;SDS011;12498;50.880;12.096;2023-05-20T06:38:16;197.70;;;90.60;;
24373;SDS011;12498;50.880;12.096;2023-05-20T06:40:42;72.82;;;41.75;;
24373;SDS011;12498;50.880;12.096;2023-05-20T06:43:07;39.65;;;26.13;;
24373;SDS011;12498;50.880;12.096;2023-05-20T06:45:33;32.80;;;20.98;;
24373;SDS011;12498;50.880;12.096;2023-05-20T06:47:59;33.28;;;21.00;;
24373;SDS011;12498;50.880;12.096;2023-05-20T06:50:25;35.97;;;21.52;;
24373;SDS011;12498;50.880;12.096;2023-05-20T06:52:55;38.22;;;22.55;;
24373;SDS011;12498;50.880;12.096;2023-05-20T06:55:21;74.57;;;38.22;;
24373;SDS011;12498;50.880;12.096;2023-05-20T06:57:47;54.00;;;30.35;;
24373;SDS011;12498;50.880;12.096;2023-05-20T07:00:13;36.33;;;22.95;;
24373;SDS011;12498;50.880;12.096;2023-05-20T07:02:39;45.78;;;29.23;;
24373;SDS011;12498;50.880;12.096;2023-05-20T07:05:05;37.50;;;24.42;;
24373;SDS011;12498;50.880;12.096;2023-05-20T07:07:31;31.80;;;23.10;;
24373;SDS011;12498;50.880;12.096;2023-05-20T07:09:57;33.20;;;23.58;;
24373;SDS011;12498;50.880;12.096;2023-05-20T07:12:23;31.48;;;22.48;;
24373;SDS011;12498;50.880;12.096;2023-05-20T07:14:49;29.08;;;20.88;;
24373;SDS011;12498;50.880;12.096;2023-05-20T07:17:17;29.70;;;20.92;;
24373;SDS011;12498;50.880;12.096;2023-05-20T07:19:43;28.90;;;20.92;;
24373;SDS011;12498;50.880;12.096;2023-05-20T07:22:09;34.25;;;20.10;;
24373;SDS011;12498;50.880;12.096;2023-05-20T07:24:35;33.63;;;20.98;;
24373;SDS011;12498;50.880;12.096;2023-05-20T07:27:01;26.63;;;16.30;;
24373;SDS011;12498;50.880;12.096;2023-05-20T07:29:27;28.67;;;18.13;;
24373;SDS011;12498;50.880;12.096;2023-05-20T07:31:53;29.25;;;19.20;;
24373;SDS011;12498;50.880;12.096;2023-05-20T07:34:19;30.58;;;19.67;;
24373;SDS011;12498;50.880;12.096;2023-05-20T07:36:46;27.40;;;19.83;;
24373;SDS011;12498;50.880;12.096;2023-05-20T07:39:13;28.13;;;20.05;;
24373;SDS011;12498;50.880;12.096;2023-05-20T07:41:39;27.42;;;18.52;;
24373;SDS011;12498;50.880;12.096;2023-05-20T07:44:06;28.63;;;19.63;;
24373;SDS011;12498;50.880;12.096;2023-05-20T07:46:33;26.75;;;19.20;;
24373;SDS011;12498;50.880;12.096;2023-05-20T07:48:59;28.13;;;19.38;;
24373;SDS011;12498;50.880;12.096;2023-05-20T07:51:25;25.83;;;18.90;;
24373;SDS011;12498;50.880;12.096;2023-05-20T07:53:51;26.63;;;18.30;;
24373;SDS011;12498;50.880;12.096;2023-05-20T07:56:17;25.52;;;18.10;;
24373;SDS011;12498;50.880;12.096;2023-05-20T07:58:50;25.77;;;19.25;;
24373;SDS011;12498;50.880;12.096;2023-05-20T08:01:16;24.48;;;18.30;;
24373;SDS011;12498;50.880;12.096;2023-05-20T08:03:42;26.52;;;18.75;;
24373;SDS011;12498;50.880;12.096;2023-05-20T08:06:08;26.77;;;18.13;;
24373;SDS011;12498;50.880;12.096;2023-05-20T08:08:34;25.73;;;17.52;;
24373;SDS011;12498;50.880;12.096;2023-05-20T08:11:00;27.45;;;18.35;;
24373;SDS011;12498;50.880;12.096;2023-05-20T08:13:26;26.77;;;18.50;;
24373;SDS011;12498;50.880;12.096;2023-05-20T08:15:55;29.25;;;19.15;;
24373;SDS011;12498;50.880;12.096;2023-05-20T08:18:20;24.10;;;17.98;;
24373;SDS011;12498;50.880;12.096;2023-05-20T08:20:47;27.70;;;19.45;;
24373;SDS011;12498;50.880;12.096;2023-05-20T08:23:12;26.38;;;18.90;;
24373;SDS011;12498;50.880;12.096;2023-05-20T08:25:38;27.50;;;18.58;;
24373;SDS011;12498;50.880;12.096;2023-05-20T08:28:04;23.67;;;18.63;;
24373;SDS011;12498;50.880;12.096;2023-05-20T08:30:31;23.25;;;18.38;;
24373;SDS011;12498;50.880;12.096;2023-05-20T08:32:58;26.27;;;18.35;;
24373;SDS011;12498;50.880;12.096;2023-05-20T08:35:24;34.13;;;26.20;;
24373;SDS011;12498;50.880;12.096;2023-05-20T08:37:50;28.90;;;21.38;;
24373;SDS011;12498;50.880;12.096;2023-05-20T08:40:17;24.85;;;18.13;;
24373;SDS011;12498;50.880;12.096;2023-05-20T08:42:44;24.33;;;17.77;;
24373;SDS011;12498;50.880;12.096;2023-05-20T08:45:12;25.50;;;17.45;;
24373;SDS011;12498;50.880;12.096;2023-05-20T08:47:41;21.85;;;16.38;;
24373;SDS011;12498;50.880;12.096;2023-05-20T08:50:07;22.27;;;16.60;;
24373;SDS011;12498;50.880;12.096;2023-05-20T08:52:44;23.52;;;17.45;;
24373;SDS011;12498;50.880;12.096;2023-05-20T08:55:13;26.77;;;17.38;;
24373;SDS011;12498;50.880;12.096;2023-05-20T08:57:41;21.52;;;16.50;;
24373;SDS011;12498;50.880;12.096;2023-05-20T09:00:10;22.60;;;16.20;;
24373;SDS011;12498;50.880;12.096;2023-05-20T09:02:38;20.27;;;16.20;;
24373;SDS011;12498;50.880;12.096;2023-05-20T09:05:04;22.77;;;15.73;;
24373;SDS011;12498;50.880;12.096;2023-05-20T09:07:30;23.90;;;16.90;;
24373;SDS011;12498;50.880;12.096;2023-05-20T09:09:56;22.50;;;17.05;;
24373;SDS011;12498;50.880;12.096;2023-05-20T09:12:22;25.42;;;16.45;;
24373;SDS011;12498;50.880;12.096;2023-05-20T09:14:48;21.50;;;16.33;;
24373;SDS011;12498;50.880;12.096;2023-05-20T09:17:13;21.60;;;16.42;;
24373;SDS011;12498;50.880;12.096;2023-05-20T09:19:39;27.58;;;18.05;;
24373;SDS011;12498;50.880;12.096;2023-05-20T09:22:05;23.38;;;16.83;;
24373;SDS011;12498;50.880;12.096;2023-05-20T09:24:31;28.95;;;20.95;;
24373;SDS011;12498;50.880;12.096;2023-05-20T09:26:56;21.60;;;17.40;;
24373;SDS011;12498;50.880;12.096;2023-05-20T09:29:22;22.90;;;16.77;;
24373;SDS011;12498;50.880;12.096;2023-05-20T09:31:49;22.75;;;17.10;;
24373;SDS011;12498;50.880;12.096;2023-05-20T09:34:15;24.38;;;17.77;;
24373;SDS011;12498;50.880;12.096;2023-05-20T09:36:41;22.63;;;17.30;;
24373;SDS011;12498;50.880;12.096;2023-05-20T09:39:12;22.05;;;17.73;;
24373;SDS011;12498;50.880;12.096;2023-05-20T09:41:52;23.83;;;16.55;;
24373;SDS011;12498;50.880;12.096;2023-05-20T09:44:26;21.77;;;16.73;;
24373;SDS011;12498;50.880;12.096;2023-05-20T09:46:53;18.95;;;15.57;;
24373;SDS011;12498;50.880;12.096;2023-05-20T09:49:23;21.55;;;15.85;;
24373;SDS011;12498;50.880;12.096;2023-05-20T09:51:50;19.92;;;15.35;;
24373;SDS011;12498;50.880;12.096;2023-05-20T09:54:18;21.98;;;15.70;;
24373;SDS011;12498;50.880;12.096;2023-05-20T09:56:45;20.90;;;15.57;;
24373;SDS011;12498;50.880;12.096;2023-05-20T09:59:11;20.02;;;15.43;;
24373;SDS011;12498;50.880;12.096;2023-05-20T10:01:40;20.25;;;16.30;;
24373;SDS011;12498;50.880;12.096;2023-05-20T10:04:06;21.70;;;15.02;;
24373;SDS011;12498;50.880;12.096;2023-05-20T10:06:43;20.67;;;14.82;;
24373;SDS011;12498;50.880;12.096;2023-05-20T10:09:35;20.83;;;15.90;;
24373;SDS011;12498;50.880;12.096;2023-05-20T10:15:07;20.83;;;15.65;;
24373;SDS011;12498;50.880;12.096;2023-05-20T10:20:44;20.42;;;15.40;;
24373;SDS011;12498;50.880;12.096;2023-05-20T10:23:19;18.85;;;15.02;;
24373;SDS011;12498;50.880;12.096;2023-05-20T10:25:49;19.25;;;15.02;;
24373;SDS011;12498;50.880;12.096;2023-05-20T10:28:23;21.75;;;15.48;;
24373;SDS011;12498;50.880;12.096;2023-05-20T10:30:57;19.83;;;15.02;;
24373;SDS011;12498;50.880;12.096;2023-05-20T10:33:24;20.80;;;15.95;;
24373;SDS011;12498;50.880;12.096;2023-05-20T10:35:52;25.88;;;15.32;;
24373;SDS011;12498;50.880;12.096;2023-05-20T10:38:18;19.73;;;15.25;;
24373;SDS011;12498;50.880;12.096;2023-05-20T10:40:45;18.42;;;14.38;;
24373;SDS011;12498;50.880;12.096;2023-05-20T10:43:15;20.92;;;15.05;;
24373;SDS011;12498;50.880;12.096;2023-05-20T10:45:58;18.92;;;14.93;;
24373;SDS011;12498;50.880;12.096;2023-05-20T10:50:53;18.75;;;14.25;;
24373;SDS011;12498;50.880;12.096;2023-05-20T10:53:20;20.25;;;15.07;;
24373;SDS011;12498;50.880;12.096;2023-05-20T10:55:50;21.92;;;15.82;;
24373;SDS011;12498;50.880;12.096;2023-05-20T10:58:17;20.60;;;16.33;;
24373;SDS011;12498;50.880;12.096;2023-05-20T11:00:46;23.92;;;15.55;;
24373;SDS011;12498;50.880;12.096;2023-05-20T11:03:13;27.13;;;18.42;;
24373;SDS011;12498;50.880;12.096;2023-05-20T11:05:43;24.85;;;17.52;;
24373;SDS011;12498;50.880;12.096;2023-05-20T11:08:13;20.52;;;16.20;;
24373;SDS011;12498;50.880;12.096;2023-05-20T11:10:40;24.92;;;16.45;;
24373;SDS011;12498;50.880;12.096;2023-05-20T11:13:06;25.23;;;16.67;;
24373;SDS011;12498;50.880;12.096;2023-05-20T11:15:33;22.60;;;15.63;;
24373;SDS011;12498;50.880;12.096;2023-05-20T11:18:01;21.63;;;15.75;;
24373;SDS011;12498;50.880;12.096;2023-05-20T11:20:29;18.58;;;14.10;;
24373;SDS011;12498;50.880;12.096;2023-05-20T11:22:58;21.38;;;14.60;;
24373;SDS011;12498;50.880;12.096;2023-05-20T11:25:25;18.08;;;14.55;;
24373;SDS011;12498;50.880;12.096;2023-05-20T11:27:52;18.45;;;14.48;;
24373;SDS011;12498;50.880;12.096;2023-05-20T11:30:18;20.38;;;15.48;;
24373;SDS011;12498;50.880;12.096;2023-05-20T11:32:57;21.10;;;14.80;;
24373;SDS011;12498;50.880;12.096;2023-05-20T11:35:25;21.33;;;15.07;;
24373;SDS011;12498;50.880;12.096;2023-05-20T11:38:14;22.27;;;14.60;;
24373;SDS011;12498;50.880;12.096;2023-05-20T11:40:42;22.58;;;15.25;;
24373;SDS011;12498;50.880;12.096;2023-05-20T11:43:10;20.35;;;16.17;;
24373;SDS011;12498;50.880;12.096;2023-05-20T11:45:43;19.20;;;14.35;;
24373;SDS011;12498;50.880;12.096;2023-05-20T11:48:09;19.65;;;14.25;;
24373;SDS011;12498;50.880;12.096;2023-05-20T11:50:39;21.52;;;13.95;;
24373;SDS011;12498;50.880;12.096;2023-05-20T11:53:08;22.30;;;14.60;;
24373;SDS011;12498;50.880;12.096;2023-05-20T11:55:43;22.15;;;16.30;;
24373;SDS011;12498;50.880;12.096;2023-05-20T11:58:10;20.10;;;14.18;;
24373;SDS011;12498;50.880;12.096;2023-05-20T12:00:36;16.92;;;13.93;;
24373;SDS011;12498;50.880;12.096;2023-05-20T12:03:02;23.30;;;14.32;;
24373;SDS011;12498;50.880;12.096;2023-05-20T12:05:28;19.75;;;14.52;;
24373;SDS011;12498;50.880;12.096;2023-05-20T12:07:54;19.25;;;15.75;;
24373;SDS011;12498;50.880;12.096;2023-05-20T12:10:20;27.70;;;16.67;;
24373;SDS011;12498;50.880;12.096;2023-05-20T12:12:46;24.27;;;15.63;;
24373;SDS011;12498;50.880;12.096;2023-05-20T12:15:12;19.90;;;16.15;;
24373;SDS011;12498;50.880;12.096;2023-05-20T12:17:45;24.63;;;16.83;;
24373;SDS011;12498;50.880;12.096;2023-05-20T12:20:12;24.58;;;17.30;;
24373;SDS011;12498;50.880;12.096;2023-05-20T12:22:39;21.30;;;16.35;;
24373;SDS011;12498;50.880;12.096;2023-05-20T12:25:05;22.35;;;16.20;;
24373;SDS011;12498;50.880;12.096;2023-05-20T12:27:31;22.60;;;17.30;;
24373;SDS011;12498;50.880;12.096;2023-05-20T12:29:57;26.92;;;17.60;;
24373;SDS011;12498;50.880;12.096;2023-05-20T12:32:23;26.25;;;16.15;;
24373;SDS011;12498;50.880;12.096;2023-05-20T12:34:49;23.92;;;16.90;;
24373;SDS011;12498;50.880;12.096;2023-05-20T12:37:15;24.48;;;16.50;;
24373;SDS011;12498;50.880;12.096;2023-05-20T12:39:41;21.05;;;15.73;;
24373;SDS011;12498;50.880;12.096;2023-05-20T12:42:07;20.17;;;14.73;;
24373;SDS011;12498;50.880;12.096;2023-05-20T12:44:33;20.35;;;15.02;;
24373;SDS011;12498;50.880;12.096;2023-05-20T12:46:59;21.88;;;15.85;;
24373;SDS011;12498;50.880;12.096;2023-05-20T12:49:25;17.83;;;15.07;;
24373;SDS011;12498;50.880;12.096;2023-05-20T12:51:51;19.23;;;14.43;;
24373;SDS011;12498;50.880;12.096;2023-05-20T12:54:18;20.63;;;15.20;;
24373;SDS011;12498;50.880;12.096;2023-05-20T12:56:44;21.95;;;16.15;;
24373;SDS011;12498;50.880;12.096;2023-05-20T12:59:13;22.90;;;16.42;;
24373;SDS011;12498;50.880;12.096;2023-05-20T13:01:39;24.67;;;18.58;;
24373;SDS011;12498;50.880;12.096;2023-05-20T13:04:05;26.38;;;16.38;;
24373;SDS011;12498;50.880;12.096;2023-05-20T13:06:32;23.50;;;15.38;;
24373;SDS011;12498;50.880;12.096;2023-05-20T13:08:58;20.52;;;15.60;;
24373;SDS011;12498;50.880;12.096;2023-05-20T13:11:24;20.85;;;14.77;;
24373;SDS011;12498;50.880;12.096;2023-05-20T13:13:50;23.05;;;15.10;;
24373;SDS011;12498;50.880;12.096;2023-05-20T13:16:16;20.85;;;15.20;;
24373;SDS011;12498;50.880;12.096;2023-05-20T13:18:43;18.88;;;14.93;;
24373;SDS011;12498;50.880;12.096;2023-05-20T13:21:09;21.40;;;15.10;;
24373;SDS011;12498;50.880;12.096;2023-05-20T13:23:35;18.67;;;14.00;;
24373;SDS011;12498;50.880;12.096;2023-05-20T13:26:01;18.70;;;13.27;;
24373;SDS011;12498;50.880;12.096;2023-05-20T13:28:27;16.25;;;13.23;;
24373;SDS011;12498;50.880;12.096;2023-05-20T13:30:53;17.60;;;13.65;;
24373;SDS011;12498;50.880;12.096;2023-05-20T13:33:19;15.80;;;12.95;;
24373;SDS011;12498;50.880;12.096;2023-05-20T13:35:47;17.10;;;13.02;;
24373;SDS011;12498;50.880;12.096;2023-05-20T13:38:13;17.38;;;13.15;;
24373;SDS011;12498;50.880;12.096;2023-05-20T13:40:39;17.88;;;12.85;;
24373;SDS011;12498;50.880;12.096;2023-05-20T13:43:05;20.55;;;13.48;;
24373;SDS011;12498;50.880;12.096;2023-05-20T13:45:31;16.27;;;12.60;;
24373;SDS011;12498;50.880;12.096;2023-05-20T13:47:57;17.10;;;12.02;;
24373;SDS011;12498;50.880;12.096;2023-05-20T13:50:23;14.27;;;11.63;;
24373;SDS011;12498;50.880;12.096;2023-05-20T13:52:49;18.50;;;13.27;;
24373;SDS011;12498;50.880;12.096;2023-05-20T13:55:15;17.75;;;12.23;;
24373;SDS011;12498;50.880;12.096;2023-05-20T13:57:41;18.02;;;13.07;;
24373;SDS011;12498;50.880;12.096;2023-05-20T14:00:07;16.05;;;12.90;;
24373;SDS011;12498;50.880;12.096;2023-05-20T14:02:33;16.63;;;12.27;;
24373;SDS011;12498;50.880;12.096;2023-05-20T14:05:00;21.45;;;12.88;;
24373;SDS011;12498;50.880;12.096;2023-05-20T14:07:26;21.08;;;12.75;;
24373;SDS011;12498;50.880;12.096;2023-05-20T14:09:52;16.52;;;11.80;;
24373;SDS011;12498;50.880;12.096;2023-05-20T14:12:18;19.63;;;12.38;;
24373;SDS011;12498;50.880;12.096;2023-05-20T14:14:46;17.02;;;12.52;;
24373;SDS011;12498;50.880;12.096;2023-05-20T14:17:16;15.40;;;12.65;;
24373;SDS011;12498;50.880;12.096;2023-05-20T14:19:42;17.85;;;13.38;;